createdAt,value
2022-09-21T00:01:04.154Z,98597.84
2022-09-21T00:06:06.133Z,98600.50
2022-09-21T00:11:08.687Z,98600.88
2022-09-21T00:16:10.047Z,98602.72
2022-09-21T00:21:12.804Z,98596.53
2022-09-21T00:26:18.090Z,98596.53
2022-09-21T00:31:19.515Z,98608.22
2022-09-21T00:36:22.330Z,98604.03
2022-09-21T00:41:24.846Z,98606.06
2022-09-21T00:46:30.101Z,98603.88
2022-09-21T00:51:31.632Z,98602.22
2022-09-21T00:56:33.926Z,98602.56
2022-09-21T01:01:36.453Z,98608.25
2022-09-21T01:06:38.641Z,98603.25
2022-09-21T01:12:09.880Z,98607.94
2022-09-21T01:17:17.014Z,98611.78
2022-09-21T01:22:37.189Z,98616.31
2022-09-21T01:28:01.790Z,98621.19
2022-09-21T01:33:06.246Z,98613.31
2022-09-21T01:38:13.596Z,98617.19
2022-09-21T01:43:19.917Z,98617.34
2022-09-21T01:48:23.608Z,98620.53
2022-09-21T01:53:31.783Z,98620.69
2022-09-21T01:58:33.153Z,98629.06
2022-09-21T02:03:41.049Z,98623.56
2022-09-21T02:08:42.409Z,98622.59
2022-09-21T02:13:45.754Z,98620.75
2022-09-21T02:18:59.315Z,98631.78
2022-09-21T02:24:08.506Z,98630.13
2022-09-21T02:29:11.127Z,98631.44
2022-09-21T02:34:24.831Z,98637.63
2022-09-21T02:39:38.860Z,98638.47
2022-09-21T02:44:42.705Z,98643.81
2022-09-21T02:49:46.799Z,98638.47
2022-09-21T02:54:51.013Z,98649.16
2022-09-21T02:59:52.371Z,98647.00
2022-09-21T03:04:54.054Z,98646.16
2022-09-21T03:09:55.312Z,98652.53
2022-09-21T03:14:56.628Z,98658.84
2022-09-21T03:19:58.067Z,98659.34
2022-09-21T03:24:59.605Z,98664.88
2022-09-21T03:30:02.422Z,98663.72
2022-09-21T03:35:04.788Z,98650.34
2022-09-21T03:40:06.430Z,98660.50
2022-09-21T03:45:08.509Z,98663.19
2022-09-21T03:50:10.558Z,98666.53
2022-09-21T03:55:11.911Z,98662.84
2022-09-21T04:00:13.827Z,98669.22
2022-09-21T04:05:15.875Z,98669.88
2022-09-21T04:10:21.241Z,98668.91
2022-09-21T04:15:23.304Z,98673.91
2022-09-21T04:20:24.685Z,98668.88
2022-09-21T04:25:25.958Z,98679.56
2022-09-21T04:30:27.384Z,98676.91
2022-09-21T04:35:28.709Z,98685.25
2022-09-21T04:40:30.982Z,98686.25
2022-09-21T04:45:32.449Z,98685.59
2022-09-21T04:50:33.723Z,98692.88
2022-09-21T04:55:37.635Z,98695.91
2022-09-21T05:00:38.899Z,98696.72
2022-09-21T05:05:45.688Z,98703.09
2022-09-21T05:10:46.971Z,98704.09
2022-09-21T05:15:48.251Z,98715.63
2022-09-21T05:21:00.491Z,98719.13
2022-09-21T05:26:01.833Z,98728.16
2022-09-21T05:31:18.069Z,98731.47
2022-09-21T05:36:39.917Z,98733.69
2022-09-21T05:41:41.387Z,98737.03
2022-09-21T05:46:51.667Z,98730.34
2022-09-21T05:52:16.966Z,98734.03
2022-09-21T05:57:21.413Z,98743.72
2022-09-21T06:02:41.651Z,98752.25
2022-09-21T06:07:43.176Z,98755.59
2022-09-21T06:12:44.449Z,98757.44
2022-09-21T06:17:45.719Z,98749.41
2022-09-21T06:22:46.985Z,98759.44
2022-09-21T06:27:48.248Z,98760.78
2022-09-21T06:32:49.518Z,98758.94
2022-09-21T06:37:50.793Z,98759.28
2022-09-21T06:42:55.133Z,98756.44
2022-09-21T06:47:56.792Z,98756.44
2022-09-21T06:53:02.433Z,98762.59
2022-09-21T06:58:03.807Z,98763.59
2022-09-21T07:03:05.302Z,98770.44
2022-09-21T07:08:06.810Z,98768.75
2022-09-21T07:13:10.097Z,98769.06
2022-09-21T07:18:12.125Z,98777.94
2022-09-21T07:23:15.222Z,98789.13
2022-09-21T07:28:16.818Z,98785.75
2022-09-21T07:33:18.104Z,98791.25
2022-09-21T07:38:19.504Z,98793.44
2022-09-21T07:43:20.865Z,98801.13
2022-09-21T07:48:22.721Z,98797.09
2022-09-21T07:53:24.008Z,98801.13
2022-09-21T07:58:44.016Z,98807.81
2022-09-21T08:03:45.311Z,98813.38
2022-09-21T08:08:47.928Z,98808.16
2022-09-21T08:13:52.043Z,98803.47
2022-09-21T08:18:53.381Z,98817.44
2022-09-21T08:23:54.681Z,98816.16
2022-09-21T08:28:57.761Z,98824.69
2022-09-21T08:34:00.576Z,98824.69
2022-09-21T08:39:01.886Z,98820.63
2022-09-21T08:44:05.313Z,98821.31
2022-09-21T08:49:10.197Z,98820.56
2022-09-21T08:54:30.132Z,98825.47
2022-09-21T08:59:31.401Z,98825.94
2022-09-21T09:04:49.989Z,98825.69
2022-09-21T09:10:12.863Z,98829.94
2022-09-21T09:15:20.246Z,98825.47
2022-09-21T09:20:34.149Z,98831.50
2022-09-21T09:25:40.405Z,98834.13
2022-09-21T09:30:42.042Z,98821.72
2022-09-21T09:35:47.834Z,98813.03
2022-09-21T09:40:58.291Z,98816.66
2022-09-21T09:46:02.686Z,98823.50
2022-09-21T09:51:03.981Z,98830.38
2022-09-21T09:56:05.373Z,98820.94
2022-09-21T10:01:06.901Z,98814.09
2022-09-21T10:06:16.006Z,98812.31
2022-09-21T10:11:17.571Z,98814.50
2022-09-21T10:16:20.399Z,98816.19
2022-09-21T10:21:24.990Z,98821.09
2022-09-21T10:26:36.904Z,98813.34
2022-09-21T10:31:53.205Z,98807.28
2022-09-21T10:36:56.072Z,98800.94
2022-09-21T10:41:57.363Z,98802.03
2022-09-21T10:47:02.361Z,98806.25
2022-09-21T10:52:03.730Z,98801.03
2022-09-21T10:57:08.204Z,98805.81
2022-09-21T11:02:29.660Z,98798.16
2022-09-21T11:07:34.041Z,98801.38
2022-09-21T11:12:55.568Z,98794.78
2022-09-21T11:18:06.800Z,98795.50
2022-09-21T11:23:18.280Z,98790.00
2022-09-21T11:28:31.671Z,98781.25
2022-09-21T11:33:32.961Z,98783.75
2022-09-21T11:38:52.567Z,98789.81
2022-09-21T11:44:16.363Z,98780.34
2022-09-21T11:49:39.506Z,98775.06
2022-09-21T11:54:53.258Z,98771.75
2022-09-21T12:00:05.111Z,98767.03
2022-09-21T12:05:12.492Z,98768.22
2022-09-21T12:10:32.784Z,98768.63
2022-09-21T12:16:03.477Z,98769.59
2022-09-21T12:21:11.720Z,98764.50
2022-09-21T12:26:15.502Z,98757.38
2022-09-21T12:31:23.613Z,98751.41
2022-09-21T12:36:51.286Z,98749.97
2022-09-21T12:42:05.181Z,98744.00
2022-09-21T12:47:12.278Z,98748.97
2022-09-21T12:52:22.363Z,98742.09
2022-09-21T13:02:58.133Z,98737.16
2022-09-21T13:08:03.645Z,98735.38
2022-09-21T13:13:08.117Z,98738.16
2022-09-21T13:18:23.449Z,98726.88
2022-09-21T13:23:33.893Z,98746.31
2022-09-21T13:29:00.181Z,98728.63
2022-09-21T13:34:06.755Z,98733.84
2022-09-21T13:39:08.137Z,98729.75
2022-09-21T13:44:20.648Z,98731.28
2022-09-21T13:49:31.197Z,98726.44
2022-09-21T13:54:35.503Z,98715.34
2022-09-21T13:59:38.754Z,98721.19
2022-09-21T14:04:40.048Z,98701.06
2022-09-21T14:09:43.282Z,98709.34
2022-09-21T14:15:04.600Z,98706.81
2022-09-21T14:20:30.172Z,98701.84
2022-09-21T14:25:47.745Z,98709.78
2022-09-21T14:30:51.377Z,98709.34
2022-09-21T14:35:53.127Z,98706.44
2022-09-21T14:41:01.426Z,98705.56
2022-09-21T14:46:24.343Z,98702.94
2022-09-21T14:51:36.427Z,98709.44
2022-09-21T14:56:54.042Z,98698.16
2022-09-21T15:01:59.600Z,98695.69
2022-09-21T15:07:33.408Z,98696.81
2022-09-21T15:12:44.021Z,98689.66
2022-09-21T15:17:59.199Z,98683.56
2022-09-21T15:23:01.065Z,98684.22
2022-09-21T15:28:02.940Z,98680.25
2022-09-21T15:33:04.705Z,98684.75
2022-09-21T15:38:25.925Z,98683.09
2022-09-21T15:43:27.184Z,98674.94
2022-09-21T15:48:34.122Z,98685.72
2022-09-21T15:53:39.217Z,98683.03
2022-09-21T15:58:41.685Z,98689.06
2022-09-21T16:03:43.382Z,98681.78
2022-09-21T16:08:44.786Z,98690.28
2022-09-21T16:14:05.405Z,98691.28
2022-09-21T16:19:08.271Z,98693.53
2022-09-21T16:24:27.231Z,98695.13
2022-09-21T16:29:39.636Z,98692.59
2022-09-21T16:34:42.082Z,98694.19
2022-09-21T16:39:43.346Z,98686.19
2022-09-21T16:44:45.291Z,98689.63
2022-09-21T16:49:46.692Z,98697.41
2022-09-21T16:54:49.031Z,98698.78
2022-09-21T16:59:50.366Z,98695.56
2022-09-21T17:04:51.739Z,98701.31
2022-09-21T17:09:53.007Z,98693.75
2022-09-21T17:14:54.291Z,98707.72
2022-09-21T17:19:55.558Z,98697.91
2022-09-21T17:24:56.933Z,98708.16
2022-09-21T17:30:03.332Z,98698.72
2022-09-21T17:35:19.629Z,98701.34
2022-09-21T17:40:24.042Z,98702.28
2022-09-21T17:45:54.788Z,98710.53
2022-09-21T17:50:56.397Z,98704.69
2022-09-21T17:55:58.670Z,98719.97
2022-09-21T18:01:09.495Z,98718.88
2022-09-21T18:06:11.311Z,98717.41
2022-09-21T18:11:29.439Z,98728.09
2022-09-21T18:16:52.171Z,98721.78
2022-09-21T18:21:58.314Z,98730.22
2022-09-21T18:27:00.650Z,98729.75
2022-09-21T18:32:20.921Z,98738.19
2022-09-21T18:37:39.749Z,98735.22
2022-09-21T18:42:45.741Z,98735.78
2022-09-21T18:47:53.906Z,98741.44
2022-09-21T18:53:06.540Z,98753.09
2022-09-21T18:58:09.981Z,98745.16
2022-09-21T19:03:17.763Z,98740.88
2022-09-21T19:08:22.175Z,98740.31
2022-09-21T19:13:43.617Z,98737.81
2022-09-21T19:18:54.164Z,98740.41
2022-09-21T19:23:55.693Z,98735.75
2022-09-21T19:29:03.129Z,98738.81
2022-09-21T19:34:14.521Z,98738.53
2022-09-21T19:39:16.187Z,98737.56
2022-09-21T19:44:29.643Z,98740.97
2022-09-21T19:49:44.253Z,98737.34
2022-09-21T19:55:04.562Z,98736.41
2022-09-21T20:00:08.726Z,98738.16
2022-09-21T20:05:22.321Z,98738.16
2022-09-21T20:10:26.630Z,98729.25
2022-09-21T20:15:31.404Z,98732.78
2022-09-21T20:20:32.828Z,98743.66
2022-09-21T20:25:37.438Z,98737.84
2022-09-21T20:30:39.887Z,98732.50
2022-09-21T20:35:42.588Z,98733.22
2022-09-21T20:40:44.664Z,98733.28
2022-09-21T20:45:50.208Z,98731.13
2022-09-21T20:50:52.270Z,98726.31
2022-09-21T20:55:55.053Z,98723.16
2022-09-21T21:01:02.260Z,98730.69
2022-09-21T21:06:11.212Z,98726.34
2022-09-21T21:11:14.238Z,98728.34
2022-09-21T21:16:15.638Z,98724.84
2022-09-21T21:21:17.240Z,98725.03
2022-09-21T21:26:18.573Z,98728.06
2022-09-21T21:31:21.563Z,98716.69
2022-09-21T21:36:23.088Z,98710.34
2022-09-21T21:41:24.353Z,98715.69
2022-09-21T21:46:25.975Z,98711.31
2022-09-21T21:51:27.271Z,98715.03
2022-09-21T21:56:29.586Z,98710.84
2022-09-21T22:01:31.075Z,98703.81
2022-09-21T22:06:33.842Z,98705.00
2022-09-21T22:11:35.433Z,98703.84
2022-09-21T22:16:37.846Z,98708.38
2022-09-21T22:21:46.594Z,98701.50
2022-09-21T22:26:49.580Z,98694.47
2022-09-21T22:31:51.622Z,98697.31
2022-09-21T22:36:53.736Z,98691.97
2022-09-21T22:41:54.992Z,98693.66
2022-09-21T22:46:56.280Z,98698.00
2022-09-21T22:51:57.607Z,98687.09
2022-09-21T22:56:58.872Z,98690.31
2022-09-21T23:02:00.147Z,98687.63
2022-09-21T23:07:01.418Z,98691.97
2022-09-21T23:12:02.757Z,98691.78
2022-09-21T23:17:04.036Z,98689.75
2022-09-21T23:22:05.384Z,98686.25
2022-09-21T23:27:06.658Z,98688.94
2022-09-21T23:32:08.033Z,98689.75
2022-09-21T23:37:09.396Z,98685.22
2022-09-21T23:42:10.689Z,98679.53
2022-09-21T23:47:12.113Z,98691.59
2022-09-21T23:52:13.377Z,98696.56
2022-09-21T23:57:14.643Z,98684.84
